Time;durP1;ratioP1;P1;durP2;ratioP2;P2;SDS_P1;SDS_P2;PMS_P1;PMS_P2;Temp;Humidity;BMP_temperature;BMP_pressure;BME280_temperature;BME280_humidity;BME280_pressure;Samples;Min_cycle;Max_cycle;Signal;HPM_P1;HPM_P2
2021/04/09 00:00:06;;;;;;;13.98;9.18;;;;;;;2.45;63.90;97994.05;1769244;80;21701;-79
2021/04/09 00:02:37;;;;;;;16.25;8.50;;;;;;;2.50;63.63;97997.80;1768991;81;21163;-79
2021/04/09 00:05:09;;;;;;;14.30;8.93;;;;;;;2.54;63.55;98003.28;1775003;80;21147;-80
2021/04/09 00:07:38;;;;;;;11.57;7.42;;;;;;;2.58;63.69;97999.69;1776190;80;21147;-79
2021/04/09 00:10:10;;;;;;;10.93;7.92;;;;;;;2.61;63.26;98005.23;1769611;80;21247;-78
2021/04/09 00:12:39;;;;;;;11.38;7.20;;;;;;;2.63;62.97;98008.65;1768710;80;21163;-79
2021/04/09 00:15:10;;;;;;;13.13;8.30;;;;;;;2.58;63.05;98017.91;1784164;80;21112;-79
2021/04/09 00:17:44;;;;;;;12.98;7.60;;;;;;;2.57;63.45;98025.32;1788373;80;21266;-78
2021/04/09 00:20:18;;;;;;;13.53;8.35;;;;;;;2.55;63.08;98021.08;1788550;80;21585;-79
2021/04/09 00:22:46;;;;;;;10.88;8.18;;;;;;;2.48;63.21;98021.25;1784922;80;21302;-79
2021/04/09 00:25:18;;;;;;;12.58;7.65;;;;;;;2.43;62.90;98025.77;1721781;82;21225;-79
2021/04/09 00:27:48;;;;;;;11.80;7.97;;;;;;;2.41;63.90;98018.46;1751738;82;21252;-80
2021/04/09 00:30:26;;;;;;;11.30;7.22;;;;;;;2.45;63.54;98030.48;1781651;80;21603;-79
2021/04/09 00:32:54;;;;;;;11.00;7.85;;;;;;;2.48;63.24;98027.77;1788254;80;21135;-79
2021/04/09 00:35:22;;;;;;;8.95;5.58;;;;;;;2.50;63.40;98036.84;1788229;80;21121;-78
2021/04/09 00:37:51;;;;;;;11.65;6.50;;;;;;;2.53;63.00;98038.02;1792185;80;22209;-79
2021/04/09 00:40:21;;;;;;;9.95;6.92;;;;;;;2.45;62.97;98034.82;1794104;80;21660;-79
2021/04/09 00:42:49;;;;;;;8.78;5.33;;;;;;;2.38;62.98;98047.64;1793968;80;21298;-79
2021/04/09 00:45:19;;;;;;;10.28;5.70;;;;;;;2.36;63.38;98042.49;1791612;80;21695;-79
2021/04/09 00:47:46;;;;;;;9.55;6.45;;;;;;;2.31;63.38;98042.64;1793758;80;21281;-79
2021/04/09 00:50:15;;;;;;;11.22;6.47;;;;;;;2.35;63.49;98047.29;1766604;80;21567;-80
2021/04/09 00:52:45;;;;;;;13.95;8.10;;;;;;;2.43;63.60;98051.80;1757118;82;21129;-79
2021/04/09 00:55:13;;;;;;;10.48;6.03;;;;;;;2.50;63.15;98055.90;1774435;80;21096;-79
2021/04/09 00:57:43;;;;;;;9.00;6.03;;;;;;;2.53;63.42;98058.84;1793851;80;21279;-79
2021/04/09 01:00:13;;;;;;;9.80;7.20;;;;;;;2.58;63.42;98061.30;1793737;80;21132;-78
2021/04/09 01:02:41;;;;;;;11.03;6.42;;;;;;;2.65;63.12;98066.70;1793940;80;21247;-79
2021/04/09 01:05:11;;;;;;;9.53;6.37;;;;;;;2.70;63.30;98062.20;1792899;80;21115;-78
2021/04/09 01:07:40;;;;;;;11.22;7.15;;;;;;;2.74;63.40;98066.39;1793620;80;21246;-79
2021/04/09 01:10:10;;;;;;;9.88;6.95;;;;;;;2.79;63.18;98067.11;1793588;80;21707;-78
2021/04/09 01:12:37;;;;;;;8.98;6.45;;;;;;;2.82;63.14;98067.45;1793762;79;21711;-79
2021/04/09 01:15:09;;;;;;;10.55;7.20;;;;;;;2.85;63.23;98069.09;1764710;79;21141;-78
2021/04/09 01:17:58;;;;;;;9.58;7.17;;;;;;;2.88;63.22;98065.94;1793714;80;21624;-79
2021/04/09 01:20:47;;;;;;;10.50;7.53;;;;;;;2.92;62.94;98062.34;1760011;80;21142;-79
2021/04/09 01:23:50;;;;;;;10.80;6.95;;;;;;;2.93;62.63;98063.17;1757036;82;21303;-79
2021/04/09 01:27:16;;;;;;;11.70;7.35;;;;;;;2.95;62.79;98065.28;1757156;82;21146;-79
2021/04/09 01:30:30;;;;;;;14.25;8.15;;;;;;;2.97;62.74;98070.83;1603926;89;21222;-80
2021/04/09 01:32:57;;;;;;;13.13;7.08;;;;;;;2.97;62.78;98067.39;1632392;88;21162;-80
2021/04/09 01:35:27;;;;;;;13.48;7.97;;;;;;;2.96;63.18;98076.10;1603766;89;21667;-79
2021/04/09 01:38:01;;;;;;;10.08;7.75;;;;;;;2.95;63.08;98072.66;1596322;88;21198;-79
2021/04/09 01:40:40;;;;;;;14.18;8.10;;;;;;;2.96;63.26;98069.59;1629486;88;21667;-79
2021/04/09 01:43:19;;;;;;;14.33;7.70;;;;;;;3.02;63.67;98073.28;1781950;79;22938;-79
2021/04/09 01:45:50;;;;;;;13.83;8.20;;;;;;;2.95;63.18;98078.30;1755461;81;21168;-79
2021/04/09 01:48:20;;;;;;;11.28;7.30;;;;;;;2.95;63.21;98072.66;1755608;82;21141;-81
2021/04/09 01:50:49;;;;;;;9.30;6.60;;;;;;;2.97;63.26;98071.30;1755666;82;21577;-80
2021/04/09 01:53:17;;;;;;;11.25;6.62;;;;;;;2.96;63.29;98074.38;1755280;81;21160;-79
2021/04/09 01:55:48;;;;;;;10.45;5.85;;;;;;;2.97;63.39;98072.60;1755483;81;21135;-79
2021/04/09 01:58:18;;;;;;;11.80;7.15;;;;;;;2.98;63.16;98073.00;1755271;81;21120;-79
2021/04/09 02:00:45;;;;;;;10.32;6.75;;;;;;;2.96;63.02;98080.02;1754886;82;21128;-79
2021/04/09 02:03:15;;;;;;;12.73;6.97;;;;;;;2.95;63.34;98080.91;1754059;82;21565;-80
2021/04/09 02:05:42;;;;;;;12.20;8.18;;;;;;;2.97;63.49;98080.41;1680480;85;21159;-79
2021/04/09 02:08:11;;;;;;;11.12;7.20;;;;;;;2.99;63.44;98079.05;1686096;84;21147;-79
2021/04/09 02:10:38;;;;;;;10.80;7.22;;;;;;;3.00;63.42;98084.23;1686116;85;21151;-79
2021/04/09 02:13:08;;;;;;;10.53;7.35;;;;;;;3.02;63.44;98081.56;1686188;85;21136;-79
2021/04/09 02:15:36;;;;;;;8.70;7.03;;;;;;;3.03;63.02;98080.20;1686043;85;21162;-80
2021/04/09 02:18:05;;;;;;;9.38;7.20;;;;;;;3.04;63.10;98087.11;1658586;85;21600;-79
2021/04/09 02:20:32;;;;;;;9.65;6.78;;;;;;;3.07;63.14;98093.53;1686054;85;21624;-79
2021/04/09 02:23:01;;;;;;;12.90;6.92;;;;;;;3.07;63.24;98097.88;1658809;85;21154;-80
2021/04/09 02:25:28;;;;;;;10.98;7.75;;;;;;;3.07;63.23;98097.88;1688453;84;21303;-80
2021/04/09 02:27:56;;;;;;;10.23;7.08;;;;;;;3.08;63.12;98096.97;1680631;85;21195;-80
2021/04/09 02:30:24;;;;;;;12.70;7.95;;;;;;;3.10;63.14;98101.25;1680659;85;21155;-79
2021/04/09 02:32:52;;;;;;;10.98;7.40;;;;;;;3.09;63.31;98103.89;1682623;84;21737;-80
2021/04/09 02:35:20;;;;;;;10.93;8.20;;;;;;;3.07;63.28;98100.05;1696662;84;21585;-79
2021/04/09 02:37:50;;;;;;;15.95;9.40;;;;;;;3.07;63.22;98106.98;1694895;84;21237;-78
2021/04/09 02:40:30;;;;;;;10.60;8.23;;;;;;;3.07;63.45;98107.86;1680890;85;21167;-79
2021/04/09 02:42:59;;;;;;;12.98;8.55;;;;;;;3.03;63.39;98101.03;1669082;84;21342;-79
2021/04/09 02:45:27;;;;;;;14.13;8.73;;;;;;;3.00;63.33;98102.90;1665442;86;21152;-80
2021/04/09 02:47:58;;;;;;;16.50;8.13;;;;;;;2.99;63.15;98104.66;1666075;86;21713;-79
2021/04/09 02:50:37;;;;;;;12.95;8.95;;;;;;;3.00;63.10;98103.77;1666130;86;21231;-80
2021/04/09 02:53:24;;;;;;;11.22;7.35;;;;;;;3.01;63.57;98105.47;1665465;85;21319;-79
2021/04/09 02:55:52;;;;;;;14.28;8.43;;;;;;;3.02;63.91;98105.84;1644053;85;21168;-79
2021/04/09 02:58:21;;;;;;;11.88;8.18;;;;;;;3.08;63.85;98108.27;1677442;85;21152;-79
2021/04/09 03:00:50;;;;;;;11.83;8.08;;;;;;;3.10;63.68;98110.80;1664237;86;21152;-80
2021/04/09 03:03:18;;;;;;;14.23;8.70;;;;;;;3.15;63.78;98111.52;1698860;84;21176;-79
2021/04/09 03:05:51;;;;;;;12.95;8.10;;;;;;;3.23;63.94;98109.50;1711734;84;21156;-79
2021/04/09 03:08:20;;;;;;;14.85;8.55;;;;;;;3.33;63.96;98111.32;1711968;83;21188;-80
2021/04/09 03:10:48;;;;;;;11.53;7.75;;;;;;;3.43;63.88;98114.47;1688199;84;21314;-80
2021/04/09 03:13:17;;;;;;;13.40;8.58;;;;;;;3.50;63.73;98119.86;1638730;88;21197;-79
2021/04/09 03:16:14;;;;;;;14.03;8.53;;;;;;;3.55;63.37;98117.09;1645847;87;21240;-80
2021/04/09 03:18:44;;;;;;;11.80;8.70;;;;;;;3.53;63.19;98118.43;1740880;82;21313;-78
2021/04/09 03:21:11;;;;;;;12.07;8.28;;;;;;;3.50;62.87;98124.20;1735091;83;21155;-78
2021/04/09 03:23:38;;;;;;;13.08;7.78;;;;;;;3.41;62.88;98128.01;1728379;83;21172;-80
2021/04/09 03:26:05;;;;;;;12.33;7.80;;;;;;;3.32;62.63;98125.25;1739957;82;21139;-80
2021/04/09 03:28:33;;;;;;;12.13;8.50;;;;;;;3.18;62.59;98130.09;1741001;82;21692;-77
2021/04/09 03:31:00;;;;;;;11.15;7.92;;;;;;;3.02;62.69;98134.50;1706127;84;21289;-78
2021/04/09 03:33:27;;;;;;;9.05;7.20;;;;;;;2.90;63.02;98144.88;1770155;80;21104;-78
2021/04/09 03:35:55;;;;;;;9.93;7.35;;;;;;;2.78;63.11;98142.22;1769864;81;21200;-78
2021/04/09 03:38:24;;;;;;;12.23;7.87;;;;;;;2.67;63.12;98143.47;1761384;80;21181;-82
2021/04/09 03:40:52;;;;;;;9.95;7.83;;;;;;;2.56;63.40;98148.99;1738562;82;21139;-78
2021/04/09 03:43:21;;;;;;;9.98;7.62;;;;;;;2.44;64.10;98150.23;1727740;82;21147;-80
2021/04/09 03:45:50;;;;;;;9.70;7.20;;;;;;;2.33;64.17;98151.86;1725449;83;21281;-79
2021/04/09 03:48:20;;;;;;;11.73;8.00;;;;;;;2.26;64.12;98153.80;1725600;82;21672;-78
2021/04/09 03:50:48;;;;;;;13.90;7.90;;;;;;;2.19;64.31;98153.11;1725159;83;21254;-80
2021/04/09 03:53:16;;;;;;;12.37;8.18;;;;;;;2.15;64.32;98155.42;1724894;82;21553;-79
2021/04/09 03:55:44;;;;;;;13.00;7.72;;;;;;;2.13;64.42;98158.97;1741987;82;21233;-79
2021/04/09 03:58:11;;;;;;;13.28;9.05;;;;;;;2.10;64.42;98159.88;1705943;82;21127;-80
2021/04/09 04:00:39;;;;;;;11.50;7.75;;;;;;;2.10;64.80;98157.28;1728272;82;21140;-78
2021/04/09 04:03:06;;;;;;;10.53;8.35;;;;;;;2.12;64.95;98159.86;1724572;82;21116;-78
2021/04/09 04:05:33;;;;;;;12.03;8.48;;;;;;;2.17;64.96;98157.53;1742544;82;21549;-77
2021/04/09 04:08:01;;;;;;;11.03;7.75;;;;;;;2.22;64.91;98163.03;1742119;82;21140;-79
2021/04/09 04:10:28;;;;;;;12.58;7.37;;;;;;;2.24;65.14;98161.25;1742593;82;21132;-76
2021/04/09 04:12:55;;;;;;;12.13;8.23;;;;;;;2.24;64.99;98157.34;1742763;82;21088;-76
2021/04/09 04:15:23;;;;;;;11.00;8.43;;;;;;;2.21;64.90;98154.39;1742322;82;21148;-77
2021/04/09 04:17:50;;;;;;;13.22;7.67;;;;;;;2.20;64.82;98163.09;1748091;82;21314;-76
2021/04/09 04:20:19;;;;;;;12.33;8.38;;;;;;;2.16;64.91;98163.63;1723100;83;21119;-78
2021/04/09 04:22:46;;;;;;;12.95;8.65;;;;;;;2.13;64.29;98170.22;1685846;85;21184;-77
2021/04/09 04:25:15;;;;;;;10.68;7.20;;;;;;;2.07;64.37;98173.43;1728891;82;21137;-78
2021/04/09 04:27:43;;;;;;;8.73;7.12;;;;;;;2.00;64.44;98171.45;1741342;82;21326;-77
2021/04/09 04:30:11;;;;;;;12.47;9.08;;;;;;;1.98;64.51;98173.27;1748496;81;21565;-78
2021/04/09 04:32:39;;;;;;;12.98;8.50;;;;;;;1.99;64.67;98178.41;1733430;82;21177;-78
2021/04/09 04:35:08;;;;;;;13.78;7.87;;;;;;;1.98;64.59;98177.16;1713554;83;21132;-79
2021/04/09 04:37:35;;;;;;;10.13;7.53;;;;;;;2.00;64.91;98180.55;1736400;82;21317;-79
2021/04/09 04:40:05;;;;;;;14.95;8.10;;;;;;;2.02;64.90;98187.44;1723863;82;21119;-79
2021/04/09 04:42:32;;;;;;;13.83;7.78;;;;;;;2.07;64.84;98192.94;1732066;82;21128;-78
2021/04/09 04:45:00;;;;;;;17.67;9.68;;;;;;;2.11;64.82;98194.57;1750057;81;21148;-78
2021/04/09 04:47:27;;;;;;;13.50;8.70;;;;;;;2.22;64.77;98194.25;1735516;81;21115;-79
2021/04/09 04:49:55;;;;;;;11.55;7.60;;;;;;;2.56;65.54;98195.41;1725881;82;21154;-79
2021/04/09 04:52:22;;;;;;;13.78;8.18;;;;;;;3.08;65.34;98190.33;1748929;82;21270;-79
2021/04/09 04:54:49;;;;;;;11.43;7.55;;;;;;;3.55;64.84;98190.93;1742859;81;21128;-79
2021/04/09 04:57:16;;;;;;;14.95;7.65;;;;;;;3.97;64.41;98194.69;1714359;82;21132;-79
2021/04/09 04:59:44;;;;;;;15.93;8.50;;;;;;;4.51;64.07;98191.41;1722920;82;21136;-79
2021/04/09 05:02:11;;;;;;;9.50;6.90;;;;;;;5.10;63.03;98196.96;1743022;82;21105;-79
2021/04/09 05:04:38;;;;;;;9.13;6.90;;;;;;;5.66;61.81;98199.03;1713753;82;21121;-79
2021/04/09 05:07:07;;;;;;;8.53;6.70;;;;;;;6.15;61.26;98196.92;1713222;82;21556;-78
2021/04/09 05:09:34;;;;;;;10.75;5.83;;;;;;;6.59;59.32;98201.51;1713027;84;21156;-79
2021/04/09 05:12:02;;;;;;;8.35;6.40;;;;;;;7.06;57.47;98193.61;1717689;82;21561;-78
2021/04/09 05:14:29;;;;;;;7.85;6.22;;;;;;;7.44;57.12;98202.23;1733970;82;21137;-79
2021/04/09 05:16:57;;;;;;;10.68;6.22;;;;;;;7.77;56.04;98201.44;1737179;82;21147;-80
2021/04/09 05:19:24;;;;;;;6.75;5.87;;;;;;;8.19;55.87;98205.02;1740220;82;21545;-79
2021/04/09 05:21:51;;;;;;;13.53;8.18;;;;;;;8.62;55.38;98209.30;1720104;82;21583;-79
2021/04/09 05:24:18;;;;;;;12.18;7.33;;;;;;;8.96;52.61;98208.73;1714336;82;21124;-80
2021/04/09 05:26:46;;;;;;;8.58;7.28;;;;;;;9.28;54.84;98208.71;1716148;82;21120;-79
2021/04/09 05:29:13;;;;;;;10.15;7.70;;;;;;;9.67;52.72;98208.66;1712210;82;21096;-79
2021/04/09 05:31:42;;;;;;;11.43;7.20;;;;;;;9.92;51.70;98216.41;1733079;82;21151;-79
2021/04/09 05:34:09;;;;;;;11.15;7.35;;;;;;;10.44;51.58;98219.49;1717679;82;21108;-81
2021/04/09 05:36:36;;;;;;;8.40;6.72;;;;;;;10.79;50.34;98225.66;1732926;82;21148;-79
2021/04/09 05:39:04;;;;;;;10.10;6.62;;;;;;;11.16;49.34;98227.72;1742897;80;21217;-79
2021/04/09 05:41:31;;;;;;;8.63;6.45;;;;;;;11.46;49.42;98224.86;1743499;80;21160;-78
2021/04/09 05:43:58;;;;;;;8.08;6.60;;;;;;;11.84;47.58;98229.38;1736449;83;21576;-78
2021/04/09 05:46:25;;;;;;;6.85;5.75;;;;;;;12.29;46.08;98229.03;1711337;84;21526;-78
2021/04/09 05:48:52;;;;;;;8.05;6.15;;;;;;;12.54;45.87;98228.62;1681244;84;21589;-78
2021/04/09 05:51:20;;;;;;;10.82;5.90;;;;;;;12.63;46.25;98224.01;1690014;83;21108;-80
2021/04/09 05:53:47;;;;;;;8.33;6.17;;;;;;;12.76;43.25;98227.94;1711352;84;21144;-78
2021/04/09 05:56:16;;;;;;;7.80;6.47;;;;;;;12.84;45.81;98224.77;1711221;84;21144;-79
2021/04/09 05:58:43;;;;;;;9.13;5.97;;;;;;;12.99;41.79;98229.43;1713466;82;21143;-78
2021/04/09 06:01:10;;;;;;;5.80;5.20;;;;;;;12.95;42.39;98228.81;1711348;84;21112;-79
2021/04/09 06:03:38;;;;;;;7.28;5.42;;;;;;;13.00;42.56;98231.13;1711666;84;21143;-78
2021/04/09 06:06:05;;;;;;;5.97;4.20;;;;;;;13.30;42.73;98233.83;1713002;82;21179;-78
2021/04/09 06:08:32;;;;;;;5.37;4.83;;;;;;;13.10;40.62;98233.94;1710924;84;21143;-78
2021/04/09 06:11:00;;;;;;;5.00;4.35;;;;;;;11.90;40.53;98233.90;1711663;84;21116;-78
2021/04/09 06:13:29;;;;;;;7.03;6.33;;;;;;;11.19;42.93;98232.32;1710909;84;21176;-79
2021/04/09 06:15:56;;;;;;;7.30;6.08;;;;;;;10.74;43.68;98229.05;1711642;84;21135;-79
2021/04/09 06:18:24;;;;;;;7.58;6.30;;;;;;;10.89;44.21;98232.50;1711504;83;21176;-78
2021/04/09 06:20:52;;;;;;;8.43;6.75;;;;;;;11.18;43.19;98231.95;1711299;84;21151;-78
2021/04/09 06:23:19;;;;;;;8.73;7.33;;;;;;;10.80;43.80;98234.41;1711467;84;21593;-78
2021/04/09 06:25:46;;;;;;;8.53;7.58;;;;;;;10.69;42.21;98233.28;1711381;84;21140;-79
2021/04/09 06:28:13;;;;;;;8.13;6.33;;;;;;;10.92;42.87;98233.16;1711663;84;21128;-78
2021/04/09 06:30:41;;;;;;;10.53;7.78;;;;;;;10.95;42.46;98238.70;1711654;84;21144;-79
2021/04/09 06:33:08;;;;;;;13.83;7.53;;;;;;;10.63;42.73;98236.31;1711741;84;21609;-78
2021/04/09 06:35:36;;;;;;;11.97;8.35;;;;;;;10.31;43.24;98230.74;1711617;84;21155;-76
2021/04/09 06:38:03;;;;;;;10.10;7.62;;;;;;;10.01;43.23;98236.09;1711979;84;21151;-78
2021/04/09 06:40:34;;;;;;;9.80;7.12;;;;;;;9.79;43.47;98236.04;1712147;84;21152;-78
2021/04/09 06:43:01;;;;;;;9.80;7.67;;;;;;;10.02;44.08;98243.51;1712042;84;21197;-78
2021/04/09 06:45:29;;;;;;;14.15;6.53;;;;;;;9.91;43.64;98244.16;1711870;84;21167;-78
2021/04/09 06:47:57;;;;;;;9.90;8.30;;;;;;;9.94;43.76;98239.55;1711845;84;21180;-78
2021/04/09 06:50:25;;;;;;;5.83;3.95;;;;;;;9.85;43.91;98236.98;1711796;84;21164;-78
2021/04/09 06:52:57;;;;;;;12.03;8.18;;;;;;;10.07;43.52;98233.08;1711652;84;21140;-78
2021/04/09 06:55:26;;;;;;;8.38;6.72;;;;;;;9.64;42.91;98243.05;1711842;84;21161;-77
2021/04/09 06:57:57;;;;;;;11.70;7.28;;;;;;;9.90;43.17;98241.14;1711757;84;21131;-77
2021/04/09 07:00:30;;;;;;;7.65;6.35;;;;;;;10.24;43.56;98242.61;1689955;84;21668;-78
2021/04/09 07:02:58;;;;;;;8.10;7.12;;;;;;;10.85;41.44;98245.53;1711428;84;21144;-78
2021/04/09 07:05:29;;;;;;;7.62;6.87;;;;;;;10.81;41.11;98251.92;1711584;84;21136;-79
2021/04/09 07:08:00;;;;;;;9.08;6.67;;;;;;;10.70;39.75;98252.61;1711706;84;21162;-78
2021/04/09 07:10:27;;;;;;;8.75;5.95;;;;;;;10.96;42.00;98252.27;1711425;84;21572;-79
2021/04/09 07:13:10;;;;;;;6.10;4.95;;;;;;;10.81;41.06;98251.44;1711542;84;21176;-78
2021/04/09 07:15:44;;;;;;;9.73;6.75;;;;;;;10.33;40.17;98249.09;1711727;84;21548;-78
2021/04/09 07:18:17;;;;;;;8.78;6.58;;;;;;;9.43;41.50;98246.45;1712340;83;21184;-78
2021/04/09 07:20:45;;;;;;;9.50;7.65;;;;;;;9.18;41.81;98243.05;1719896;83;21139;-78
2021/04/09 07:23:13;;;;;;;7.67;6.28;;;;;;;9.28;41.30;98246.02;1684372;85;21712;-77
2021/04/09 07:25:48;;;;;;;12.65;8.65;;;;;;;9.61;42.33;98237.95;1720422;82;21135;-79
2021/04/09 07:28:22;;;;;;;10.50;7.95;;;;;;;8.96;42.38;98237.66;1713029;83;21196;-78
2021/04/09 07:30:56;;;;;;;15.78;7.83;;;;;;;8.77;43.40;98245.73;1720078;82;21128;-78
2021/04/09 07:33:27;;;;;;;10.65;8.48;;;;;;;9.00;43.56;98241.83;1712582;83;21156;-78
2021/04/09 07:35:58;;;;;;;11.18;8.03;;;;;;;9.20;42.87;98238.08;1692294;83;21143;-78
2021/04/09 07:38:29;;;;;;;6.97;5.65;;;;;;;9.14;42.88;98246.32;1719970;83;21177;-78
2021/04/09 07:41:07;;;;;;;6.35;5.40;;;;;;;9.15;43.15;98240.58;1683811;85;21232;-78
2021/04/09 07:43:46;;;;;;;7.62;5.28;;;;;;;9.24;40.92;98253.22;1719776;83;21164;-78
2021/04/09 07:46:24;;;;;;;7.05;5.50;;;;;;;9.28;42.23;98246.02;1713226;81;21171;-79
2021/04/09 07:49:04;;;;;;;8.10;5.65;;;;;;;9.55;42.53;98242.27;1712390;83;21164;-78
2021/04/09 07:51:32;;;;;;;10.45;5.72;;;;;;;9.80;42.70;98244.31;1712284;83;21152;-78
2021/04/09 07:54:12;;;;;;;10.05;5.87;;;;;;;10.10;42.42;98239.94;1712241;84;21561;-79
2021/04/09 07:56:45;;;;;;;6.90;5.60;;;;;;;10.09;41.31;98243.06;1719835;83;21553;-79
2021/04/09 07:59:13;;;;;;;8.15;5.92;;;;;;;9.76;41.31;98238.01;1712196;83;21117;-78
2021/04/09 08:01:49;;;;;;;6.65;5.75;;;;;;;9.62;40.50;98251.98;1712076;84;21576;-78
2021/04/09 08:04:18;;;;;;;7.30;6.55;;;;;;;9.54;41.97;98253.72;1712457;83;21143;-78
2021/04/09 08:06:45;;;;;;;9.13;6.42;;;;;;;9.68;41.92;98251.61;1719544;83;21135;-78
2021/04/09 08:09:12;;;;;;;8.03;5.83;;;;;;;9.74;41.23;98253.91;1713105;83;21131;-78
2021/04/09 08:11:40;;;;;;;8.58;6.45;;;;;;;9.83;40.65;98249.87;1719706;83;21151;-78
2021/04/09 08:14:24;;;;;;;10.05;5.97;;;;;;;9.91;41.49;98246.31;1712750;82;21144;-81
2021/04/09 08:16:54;;;;;;;6.12;5.25;;;;;;;9.94;40.64;98245.27;1718452;82;21140;-78
2021/04/09 08:19:25;;;;;;;6.95;5.00;;;;;;;9.89;40.49;98244.23;1712002;82;21168;-78
2021/04/09 08:21:59;;;;;;;6.53;5.10;;;;;;;10.01;39.91;98250.58;1711753;84;21168;-79
2021/04/09 08:24:32;;;;;;;6.95;6.05;;;;;;;9.59;39.86;98247.75;1708407;82;21562;-78
2021/04/09 08:27:00;;;;;;;9.65;5.72;;;;;;;9.61;39.78;98240.58;1714428;82;21120;-80
2021/04/09 08:29:30;;;;;;;6.03;5.22;;;;;;;9.72;40.01;98241.74;1725772;82;21092;-79
2021/04/09 08:32:03;;;;;;;10.63;6.10;;;;;;;9.54;39.19;98232.67;1739115;82;21124;-78
2021/04/09 08:34:32;;;;;;;5.37;4.55;;;;;;;9.58;40.37;98236.83;1727049;82;21115;-78
2021/04/09 08:37:00;;;;;;;11.03;4.78;;;;;;;9.93;39.51;98232.59;1712065;82;21155;-78
2021/04/09 08:39:29;;;;;;;10.60;5.37;;;;;;;9.99;38.51;98239.28;1712363;82;21100;-78
2021/04/09 08:41:57;;;;;;;9.50;4.83;;;;;;;9.94;38.18;98239.55;1711690;84;21192;-78
2021/04/09 08:44:26;;;;;;;3.75;2.55;;;;;;;10.00;37.84;98242.30;1712094;84;21241;-78
2021/04/09 08:46:54;;;;;;;4.97;3.95;;;;;;;9.90;37.89;98237.19;1690332;84;21131;-77
2021/04/09 08:49:22;;;;;;;4.37;3.50;;;;;;;9.64;37.97;98243.53;1712037;84;21163;-79
2021/04/09 08:51:51;;;;;;;4.90;3.22;;;;;;;9.17;37.94;98241.34;1690164;84;21128;-79
2021/04/09 08:54:30;;;;;;;5.85;3.90;;;;;;;8.69;38.03;98243.51;1712145;84;21133;-77
2021/04/09 08:57:02;;;;;;;2.60;2.00;;;;;;;8.57;38.96;98238.94;1713968;82;21132;-77
2021/04/09 08:59:45;;;;;;;6.22;3.25;;;;;;;8.49;37.17;98238.50;1706472;84;21112;-78
2021/04/09 09:02:24;;;;;;;6.83;3.15;;;;;;;8.23;36.09;98238.05;1714426;82;21107;-79
2021/04/09 09:05:07;;;;;;;3.75;3.08;;;;;;;8.24;37.34;98235.36;1711919;82;21100;-78
2021/04/09 09:07:56;;;;;;;3.77;3.00;;;;;;;8.29;38.15;98232.02;1714859;82;21156;-79
2021/04/09 09:10:32;;;;;;;3.30;3.00;;;;;;;8.35;37.96;98237.41;1712099;84;21226;-78
2021/04/09 09:13:15;;;;;;;5.60;4.03;;;;;;;8.10;38.79;98207.65;1717478;82;21124;-78
2021/04/09 09:15:48;;;;;;;5.72;3.60;;;;;;;8.12;38.50;98226.33;1731348;82;21560;-78
2021/04/09 09:18:33;;;;;;;4.58;3.25;;;;;;;8.33;39.21;98231.38;1714408;82;21258;-78
2021/04/09 09:21:18;;;;;;;6.08;3.67;;;;;;;8.54;38.76;98229.41;1714366;82;21140;-79
2021/04/09 09:23:53;;;;;;;4.15;3.08;;;;;;;8.94;38.77;98226.41;1715249;82;21110;-77
2021/04/09 09:26:31;;;;;;;3.20;2.47;;;;;;;9.44;38.11;98227.55;1727977;82;21179;-79
2021/04/09 09:29:28;;;;;;;3.52;2.72;;;;;;;9.69;36.82;98225.21;1713875;82;21573;-79
2021/04/09 09:32:08;;;;;;;4.00;3.50;;;;;;;9.39;34.98;98222.55;1712578;84;21585;-79
2021/04/09 09:34:39;;;;;;;8.00;3.65;;;;;;;9.27;37.23;98220.65;1712144;84;21163;-78
2021/04/09 09:37:34;;;;;;;4.37;3.20;;;;;;;9.29;37.23;98220.93;1712847;82;21206;-79
2021/04/09 09:40:06;;;;;;;3.20;2.72;;;;;;;9.20;35.33;98226.72;1738317;82;21118;-78
2021/04/09 09:42:40;;;;;;;3.42;3.02;;;;;;;9.01;36.19;98226.44;1741320;82;21206;-79
2021/04/09 09:45:12;;;;;;;3.27;2.70;;;;;;;8.72;36.09;98216.23;1733852;82;21163;-78
2021/04/09 09:47:44;;;;;;;4.75;3.50;;;;;;;8.62;36.51;98220.29;1718449;82;21132;-80
2021/04/09 09:50:38;;;;;;;4.72;3.40;;;;;;;8.56;37.04;98216.21;1717512;82;21131;-78
2021/04/09 09:53:06;;;;;;;7.05;3.87;;;;;;;8.77;37.51;98212.87;1714320;84;21164;-79
2021/04/09 09:55:41;;;;;;;4.83;3.70;;;;;;;9.14;37.36;98203.41;1713960;83;21147;-79
2021/04/09 09:58:26;;;;;;;6.95;2.90;;;;;;;9.43;37.67;98201.72;1708994;84;21721;-78
2021/04/09 10:01:04;;;;;;;4.47;3.90;;;;;;;9.69;36.87;98204.60;1691579;83;21137;-79
2021/04/09 10:03:37;;;;;;;4.40;3.80;;;;;;;9.48;36.01;98199.66;1709306;83;21582;-80
2021/04/09 10:06:11;;;;;;;4.03;3.33;;;;;;;9.36;34.90;98203.02;1696931;82;21146;-77
2021/04/09 10:08:42;;;;;;;3.83;2.85;;;;;;;9.15;35.06;98201.13;1716436;82;21561;-77
2021/04/09 10:11:19;;;;;;;3.45;3.00;;;;;;;9.02;35.37;98204.47;1709173;83;21129;-79
2021/04/09 10:13:51;;;;;;;3.45;2.83;;;;;;;8.58;35.92;98194.64;1707176;84;21141;-79
2021/04/09 10:16:25;;;;;;;3.80;2.72;;;;;;;8.47;36.20;98183.38;1704320;84;21153;-78
2021/04/09 10:18:57;;;;;;;5.08;3.33;;;;;;;8.37;36.21;98194.84;1704319;84;21137;-79
2021/04/09 10:21:30;;;;;;;7.40;3.22;;;;;;;8.26;36.47;98194.56;1704383;84;21186;-77
2021/04/09 10:24:11;;;;;;;9.33;6.05;;;;;;;8.19;36.11;98196.66;1703756;84;21169;-79
2021/04/09 10:26:46;;;;;;;3.00;2.25;;;;;;;8.13;36.48;98192.58;1704251;84;21208;-78
2021/04/09 10:29:26;;;;;;;4.22;3.47;;;;;;;8.06;36.30;98193.83;1704025;83;21161;-79
2021/04/09 10:31:57;;;;;;;5.25;3.92;;;;;;;7.93;36.97;98181.81;1704269;84;21193;-78
2021/04/09 10:34:27;;;;;;;5.47;3.95;;;;;;;8.00;36.58;98190.23;1704591;84;21149;-79
2021/04/09 10:36:54;;;;;;;7.97;4.50;;;;;;;8.02;36.99;98179.63;1693744;84;21629;-82
2021/04/09 10:39:24;;;;;;;6.08;4.37;;;;;;;8.16;37.34;98171.02;1665062;85;21182;-79
2021/04/09 10:41:54;;;;;;;10.15;3.77;;;;;;;8.16;37.34;98171.02;1663341;85;21177;-77
2021/04/09 10:44:25;;;;;;;3.10;2.65;;;;;;;8.26;36.58;98169.61;1664791;85;21144;-79
2021/04/09 10:46:55;;;;;;;4.50;2.80;;;;;;;8.43;36.75;98165.59;1661056;85;21157;-78
2021/04/09 10:49:30;;;;;;;4.53;3.30;;;;;;;8.50;35.82;98162.20;1664562;85;21574;-79
2021/04/09 10:52:07;;;;;;;6.17;3.77;;;;;;;8.48;35.67;98160.60;1685318;84;21163;-78
2021/04/09 10:54:38;;;;;;;6.30;3.00;;;;;;;8.57;36.08;98159.61;1707546;84;21190;-77
2021/04/09 10:57:13;;;;;;;6.20;4.67;;;;;;;8.84;35.97;98160.80;1707772;84;21112;-78
2021/04/09 10:59:44;;;;;;;5.00;4.08;;;;;;;8.93;34.64;98151.53;1707517;84;21099;-78
2021/04/09 11:02:26;;;;;;;3.65;3.10;;;;;;;9.03;35.25;98154.88;1707221;84;21566;-78
2021/04/09 11:04:58;;;;;;;5.50;3.85;;;;;;;9.09;34.81;98150.19;1707297;84;21127;-79
2021/04/09 11:07:46;;;;;;;5.20;4.05;;;;;;;9.19;33.59;98148.25;1707562;84;21115;-78
2021/04/09 11:10:31;;;;;;;5.37;3.67;;;;;;;9.28;34.94;98142.10;1703677;84;21144;-77
2021/04/09 11:12:58;;;;;;;3.67;3.05;;;;;;;9.45;34.82;98147.67;1707019;84;21541;-79
2021/04/09 11:15:26;;;;;;;4.35;3.87;;;;;;;9.41;33.55;98148.80;1707750;84;21155;-78
2021/04/09 11:18:00;;;;;;;5.75;3.10;;;;;;;9.36;34.19;98143.33;1707631;84;21569;-78
2021/04/09 11:20:30;;;;;;;4.83;4.05;;;;;;;9.22;33.20;98144.62;1707656;84;21139;-78
2021/04/09 11:23:09;;;;;;;4.55;4.00;;;;;;;9.09;33.97;98131.33;1707448;84;21183;-78
2021/04/09 11:25:39;;;;;;;4.85;3.60;;;;;;;9.19;33.77;98131.63;1707907;84;21534;-78
2021/04/09 11:28:21;;;;;;;5.33;3.95;;;;;;;9.05;33.75;98129.80;1707534;84;21151;-78
2021/04/09 11:31:01;;;;;;;5.10;3.70;;;;;;;9.05;34.52;98127.17;1705704;84;21131;-78
2021/04/09 11:33:39;;;;;;;5.65;3.45;;;;;;;9.26;34.87;98124.23;1707677;84;21139;-78
2021/04/09 11:36:23;;;;;;;7.87;3.45;;;;;;;9.51;34.72;98126.27;1707690;83;21177;-78
2021/04/09 11:39:06;;;;;;;9.20;3.50;;;;;;;9.78;34.26;98116.34;1707115;84;21099;-78
2021/04/09 11:41:37;;;;;;;5.20;2.65;;;;;;;9.94;34.13;98115.77;1707708;84;21135;-79
2021/04/09 11:44:39;;;;;;;4.65;3.22;;;;;;;10.11;33.77;98113.41;1707387;84;21167;-79
2021/04/09 11:47:25;;;;;;;3.65;2.90;;;;;;;10.11;31.75;98112.55;1707727;84;21432;-79
2021/04/09 11:50:15;;;;;;;4.12;3.60;;;;;;;10.13;32.17;98110.19;1707619;84;21572;-80
2021/04/09 11:52:57;;;;;;;3.80;3.10;;;;;;;10.11;31.16;98101.56;1705185;84;21181;-79
2021/04/09 11:55:35;;;;;;;5.10;3.72;;;;;;;10.12;32.38;98103.22;1703651;83;21537;-80
2021/04/09 11:58:19;;;;;;;5.92;3.55;;;;;;;10.06;30.93;98101.47;1703179;84;21120;-80